sensor_id;sensor_type;location;lat;lon;timestamp;P1;durP1;ratioP1;P2;durP2;ratioP2
7675;SDS011;3880;51.464;-2.566;2022-07-23T00:02:35;8.87;;;4.67;;
7675;SDS011;3880;51.464;-2.566;2022-07-23T00:05:26;8.63;;;3.87;;
7675;SDS011;3880;51.464;-2.566;2022-07-23T00:08:07;12.77;;;6.33;;
7675;SDS011;3880;51.464;-2.566;2022-07-23T00:10:43;11.47;;;4.93;;
7675;SDS011;3880;51.464;-2.566;2022-07-23T00:13:19;14.30;;;5.90;;
7675;SDS011;3880;51.464;-2.566;2022-07-23T00:18:52;7.60;;;5.23;;
7675;SDS011;3880;51.464;-2.566;2022-07-23T00:26:44;6.87;;;4.73;;
7675;SDS011;3880;51.464;-2.566;2022-07-23T00:28:21;10.60;;;5.20;;
7675;SDS011;3880;51.464;-2.566;2022-07-23T00:34:47;8.53;;;5.67;;
7675;SDS011;3880;51.464;-2.566;2022-07-23T00:37:59;10.53;;;6.10;;
7675;SDS011;3880;51.464;-2.566;2022-07-23T01:05:22;8.80;;;5.90;;
7675;SDS011;3880;51.464;-2.566;2022-07-23T01:08:02;7.97;;;5.23;;
7675;SDS011;3880;51.464;-2.566;2022-07-23T04:43:37;7.93;;;5.20;;
7675;SDS011;3880;51.464;-2.566;2022-07-23T05:50:15;13.77;;;5.50;;
7675;SDS011;3880;51.464;-2.566;2022-07-23T05:56:01;6.87;;;4.33;;
7675;SDS011;3880;51.464;-2.566;2022-07-23T05:56:52;8.10;;;5.00;;
7675;SDS011;3880;51.464;-2.566;2022-07-23T06:07:18;9.03;;;5.47;;
7675;SDS011;3880;51.464;-2.566;2022-07-23T06:10:28;8.13;;;4.70;;
7675;SDS011;3880;51.464;-2.566;2022-07-23T06:20:16;5.77;;;4.37;;
7675;SDS011;3880;51.464;-2.566;2022-07-23T06:24:14;10.57;;;5.13;;
7675;SDS011;3880;51.464;-2.566;2022-07-23T06:30:03;7.10;;;4.10;;
7675;SDS011;3880;51.464;-2.566;2022-07-23T06:38:40;6.10;;;4.20;;
7675;SDS011;3880;51.464;-2.566;2022-07-23T06:47:57;5.33;;;3.93;;
7675;SDS011;3880;51.464;-2.566;2022-07-23T06:51:09;5.80;;;4.37;;
7675;SDS011;3880;51.464;-2.566;2022-07-23T06:54:32;6.10;;;4.03;;
7675;SDS011;3880;51.464;-2.566;2022-07-23T07:01:32;6.03;;;3.97;;
7675;SDS011;3880;51.464;-2.566;2022-07-23T07:04:39;5.50;;;3.30;;
7675;SDS011;3880;51.464;-2.566;2022-07-23T07:14:18;5.73;;;2.73;;
7675;SDS011;3880;51.464;-2.566;2022-07-23T07:16:48;6.00;;;2.73;;
7675;SDS011;3880;51.464;-2.566;2022-07-23T07:19:18;5.60;;;3.10;;
7675;SDS011;3880;51.464;-2.566;2022-07-23T07:21:49;2.50;;;2.30;;
7675;SDS011;3880;51.464;-2.566;2022-07-23T07:24:30;3.30;;;1.93;;
7675;SDS011;3880;51.464;-2.566;2022-07-23T07:29:54;3.00;;;2.30;;
7675;SDS011;3880;51.464;-2.566;2022-07-23T07:32:36;4.23;;;2.60;;
7675;SDS011;3880;51.464;-2.566;2022-07-23T07:35:06;7.70;;;2.30;;
7675;SDS011;3880;51.464;-2.566;2022-07-23T07:37:34;4.07;;;2.20;;
7675;SDS011;3880;51.464;-2.566;2022-07-23T07:40:07;2.10;;;2.00;;
7675;SDS011;3880;51.464;-2.566;2022-07-23T07:42:46;2.17;;;1.87;;
7675;SDS011;3880;51.464;-2.566;2022-07-23T07:45:21;5.83;;;2.37;;
7675;SDS011;3880;51.464;-2.566;2022-07-23T07:47:58;3.57;;;2.43;;
7675;SDS011;3880;51.464;-2.566;2022-07-23T07:50:46;2.40;;;2.20;;
7675;SDS011;3880;51.464;-2.566;2022-07-23T07:53:43;2.27;;;1.77;;
7675;SDS011;3880;51.464;-2.566;2022-07-23T07:58:52;3.37;;;1.57;;
7675;SDS011;3880;51.464;-2.566;2022-07-23T09:01:15;2.33;;;1.60;;
7675;SDS011;3880;51.464;-2.566;2022-07-23T09:03:42;1.87;;;1.43;;
7675;SDS011;3880;51.464;-2.566;2022-07-23T09:06:10;1.80;;;1.40;;
7675;SDS011;3880;51.464;-2.566;2022-07-23T09:13:48;1.73;;;1.63;;
7675;SDS011;3880;51.464;-2.566;2022-07-23T09:16:30;4.33;;;1.80;;
7675;SDS011;3880;51.464;-2.566;2022-07-23T09:22:18;2.33;;;2.00;;
7675;SDS011;3880;51.464;-2.566;2022-07-23T09:25:02;1.70;;;1.60;;
7675;SDS011;3880;51.464;-2.566;2022-07-23T09:27:47;1.50;;;1.40;;
7675;SDS011;3880;51.464;-2.566;2022-07-23T09:30:20;2.40;;;1.60;;
7675;SDS011;3880;51.464;-2.566;2022-07-23T09:33:09;2.40;;;1.80;;
7675;SDS011;3880;51.464;-2.566;2022-07-23T09:35:47;1.97;;;1.73;;
7675;SDS011;3880;51.464;-2.566;2022-07-23T09:38:34;1.70;;;1.60;;
7675;SDS011;3880;51.464;-2.566;2022-07-23T09:41:14;1.70;;;1.60;;
7675;SDS011;3880;51.464;-2.566;2022-07-23T09:43:41;2.80;;;1.57;;
7675;SDS011;3880;51.464;-2.566;2022-07-23T09:46:18;1.83;;;1.73;;
7675;SDS011;3880;51.464;-2.566;2022-07-23T09:48:48;1.97;;;1.70;;
7675;SDS011;3880;51.464;-2.566;2022-07-23T09:51:16;2.33;;;2.13;;
7675;SDS011;3880;51.464;-2.566;2022-07-23T09:53:46;2.70;;;1.90;;
7675;SDS011;3880;51.464;-2.566;2022-07-23T09:56:13;2.10;;;2.00;;
7675;SDS011;3880;51.464;-2.566;2022-07-23T09:58:41;2.37;;;1.80;;
7675;SDS011;3880;51.464;-2.566;2022-07-23T10:01:13;1.67;;;1.57;;
7675;SDS011;3880;51.464;-2.566;2022-07-23T10:03:41;1.77;;;1.67;;
7675;SDS011;3880;51.464;-2.566;2022-07-23T10:06:10;2.17;;;1.97;;
7675;SDS011;3880;51.464;-2.566;2022-07-23T10:08:40;2.87;;;2.10;;
7675;SDS011;3880;51.464;-2.566;2022-07-23T10:11:09;3.57;;;1.97;;
7675;SDS011;3880;51.464;-2.566;2022-07-23T10:13:39;2.20;;;1.97;;
7675;SDS011;3880;51.464;-2.566;2022-07-23T10:16:18;3.73;;;1.80;;
7675;SDS011;3880;51.464;-2.566;2022-07-23T10:18:45;2.93;;;2.20;;
7675;SDS011;3880;51.464;-2.566;2022-07-23T10:21:16;3.77;;;2.10;;
7675;SDS011;3880;51.464;-2.566;2022-07-23T10:26:40;2.43;;;1.80;;
7675;SDS011;3880;51.464;-2.566;2022-07-23T10:29:16;3.13;;;2.10;;
7675;SDS011;3880;51.464;-2.566;2022-07-23T10:31:52;2.00;;;1.83;;
7675;SDS011;3880;51.464;-2.566;2022-07-23T10:34:29;6.20;;;2.40;;
7675;SDS011;3880;51.464;-2.566;2022-07-23T10:37:07;2.33;;;2.17;;
7675;SDS011;3880;51.464;-2.566;2022-07-23T10:39:42;2.47;;;2.03;;
7675;SDS011;3880;51.464;-2.566;2022-07-23T10:42:09;4.90;;;1.90;;
7675;SDS011;3880;51.464;-2.566;2022-07-23T10:44:40;1.80;;;1.70;;
7675;SDS011;3880;51.464;-2.566;2022-07-23T10:47:10;2.07;;;1.87;;
7675;SDS011;3880;51.464;-2.566;2022-07-23T10:49:51;2.40;;;2.10;;
7675;SDS011;3880;51.464;-2.566;2022-07-23T10:52:25;2.60;;;2.03;;
7675;SDS011;3880;51.464;-2.566;2022-07-23T10:54:55;2.60;;;1.77;;
7675;SDS011;3880;51.464;-2.566;2022-07-23T10:57:23;2.53;;;1.90;;
7675;SDS011;3880;51.464;-2.566;2022-07-23T11:02:45;3.07;;;1.93;;
7675;SDS011;3880;51.464;-2.566;2022-07-23T11:05:14;2.17;;;1.70;;
7675;SDS011;3880;51.464;-2.566;2022-07-23T11:10:47;2.33;;;2.13;;
7675;SDS011;3880;51.464;-2.566;2022-07-23T11:16:26;6.30;;;2.33;;
7675;SDS011;3880;51.464;-2.566;2022-07-23T11:21:41;2.17;;;1.97;;
7675;SDS011;3880;51.464;-2.566;2022-07-23T11:24:28;3.27;;;2.20;;
7675;SDS011;3880;51.464;-2.566;2022-07-23T11:26:59;2.10;;;2.00;;
7675;SDS011;3880;51.464;-2.566;2022-07-23T11:29:42;2.40;;;1.93;;
7675;SDS011;3880;51.464;-2.566;2022-07-23T11:35:19;3.53;;;2.10;;
7675;SDS011;3880;51.464;-2.566;2022-07-23T11:37:52;4.37;;;2.07;;
7675;SDS011;3880;51.464;-2.566;2022-07-23T11:40:25;2.30;;;2.10;;
7675;SDS011;3880;51.464;-2.566;2022-07-23T11:42:54;2.43;;;2.20;;
7675;SDS011;3880;51.464;-2.566;2022-07-23T11:45:29;2.20;;;2.07;;
7675;SDS011;3880;51.464;-2.566;2022-07-23T11:48:00;2.20;;;1.90;;
7675;SDS011;3880;51.464;-2.566;2022-07-23T11:50:27;3.60;;;2.10;;
7675;SDS011;3880;51.464;-2.566;2022-07-23T11:52:55;2.77;;;2.40;;
7675;SDS011;3880;51.464;-2.566;2022-07-23T11:55:23;3.70;;;2.47;;
7675;SDS011;3880;51.464;-2.566;2022-07-23T11:57:54;2.70;;;2.20;;
7675;SDS011;3880;51.464;-2.566;2022-07-23T12:00:23;2.80;;;2.60;;
7675;SDS011;3880;51.464;-2.566;2022-07-23T12:02:52;3.53;;;2.53;;
7675;SDS011;3880;51.464;-2.566;2022-07-23T12:05:24;4.23;;;2.57;;
7675;SDS011;3880;51.464;-2.566;2022-07-23T12:07:53;3.37;;;2.43;;
7675;SDS011;3880;51.464;-2.566;2022-07-23T12:10:21;4.30;;;2.40;;
7675;SDS011;3880;51.464;-2.566;2022-07-23T12:12:52;3.23;;;2.93;;
7675;SDS011;3880;51.464;-2.566;2022-07-23T12:15:22;2.70;;;2.50;;
7675;SDS011;3880;51.464;-2.566;2022-07-23T12:17:51;4.37;;;2.70;;
7675;SDS011;3880;51.464;-2.566;2022-07-23T12:20:20;3.63;;;2.90;;
7675;SDS011;3880;51.464;-2.566;2022-07-23T12:22:51;3.50;;;2.87;;
7675;SDS011;3880;51.464;-2.566;2022-07-23T12:25:20;3.87;;;2.70;;
7675;SDS011;3880;51.464;-2.566;2022-07-23T12:28:00;5.07;;;3.00;;
7675;SDS011;3880;51.464;-2.566;2022-07-23T12:30:30;2.70;;;2.50;;
7675;SDS011;3880;51.464;-2.566;2022-07-23T12:32:58;3.43;;;2.47;;
7675;SDS011;3880;51.464;-2.566;2022-07-23T12:35:30;5.07;;;3.13;;
7675;SDS011;3880;51.464;-2.566;2022-07-23T12:38:04;3.03;;;2.70;;
7675;SDS011;3880;51.464;-2.566;2022-07-23T12:40:34;5.67;;;2.73;;
7675;SDS011;3880;51.464;-2.566;2022-07-23T12:43:04;2.83;;;2.47;;
7675;SDS011;3880;51.464;-2.566;2022-07-23T12:45:42;11.67;;;4.30;;
7675;SDS011;3880;51.464;-2.566;2022-07-23T12:48:22;3.07;;;2.80;;
7675;SDS011;3880;51.464;-2.566;2022-07-23T12:50:51;2.97;;;2.43;;
7675;SDS011;3880;51.464;-2.566;2022-07-23T12:53:21;4.03;;;2.53;;
7675;SDS011;3880;51.464;-2.566;2022-07-23T12:55:50;2.63;;;2.40;;
7675;SDS011;3880;51.464;-2.566;2022-07-23T12:58:25;2.17;;;2.07;;
7675;SDS011;3880;51.464;-2.566;2022-07-23T13:00:59;4.13;;;2.33;;
7675;SDS011;3880;51.464;-2.566;2022-07-23T13:03:33;3.47;;;2.47;;
7675;SDS011;3880;51.464;-2.566;2022-07-23T13:06:03;5.30;;;2.83;;
7675;SDS011;3880;51.464;-2.566;2022-07-23T13:08:33;6.33;;;2.93;;
7675;SDS011;3880;51.464;-2.566;2022-07-23T13:11:01;4.67;;;3.20;;
7675;SDS011;3880;51.464;-2.566;2022-07-23T13:13:34;8.47;;;2.90;;
7675;SDS011;3880;51.464;-2.566;2022-07-23T13:16:02;4.20;;;2.83;;
7675;SDS011;3880;51.464;-2.566;2022-07-23T13:18:30;4.47;;;2.67;;
7675;SDS011;3880;51.464;-2.566;2022-07-23T13:20:57;9.50;;;2.90;;
7675;SDS011;3880;51.464;-2.566;2022-07-23T13:23:25;4.30;;;2.83;;
7675;SDS011;3880;51.464;-2.566;2022-07-23T13:26:05;4.97;;;3.07;;
7675;SDS011;3880;51.464;-2.566;2022-07-23T13:28:34;3.27;;;2.97;;
7675;SDS011;3880;51.464;-2.566;2022-07-23T13:31:02;3.90;;;2.37;;
7675;SDS011;3880;51.464;-2.566;2022-07-23T13:33:30;3.40;;;3.10;;
7675;SDS011;3880;51.464;-2.566;2022-07-23T13:35:57;6.47;;;2.53;;
7675;SDS011;3880;51.464;-2.566;2022-07-23T13:38:24;11.10;;;3.03;;
7675;SDS011;3880;51.464;-2.566;2022-07-23T13:40:52;2.73;;;2.53;;
7675;SDS011;3880;51.464;-2.566;2022-07-23T13:43:23;2.87;;;2.67;;
7675;SDS011;3880;51.464;-2.566;2022-07-23T13:45:58;3.80;;;2.80;;
7675;SDS011;3880;51.464;-2.566;2022-07-23T13:48:30;3.07;;;2.77;;
7675;SDS011;3880;51.464;-2.566;2022-07-23T13:50:58;4.27;;;2.83;;
7675;SDS011;3880;51.464;-2.566;2022-07-23T13:53:25;3.50;;;3.20;;
7675;SDS011;3880;51.464;-2.566;2022-07-23T13:55:52;3.13;;;2.53;;
7675;SDS011;3880;51.464;-2.566;2022-07-23T13:58:22;5.30;;;2.90;;
7675;SDS011;3880;51.464;-2.566;2022-07-23T14:00:52;2.67;;;2.47;;
7675;SDS011;3880;51.464;-2.566;2022-07-23T14:03:30;5.20;;;2.53;;
7675;SDS011;3880;51.464;-2.566;2022-07-23T14:05:58;3.87;;;3.03;;
7675;SDS011;3880;51.464;-2.566;2022-07-23T14:08:26;5.73;;;3.07;;
7675;SDS011;3880;51.464;-2.566;2022-07-23T14:10:56;12.73;;;3.27;;
7675;SDS011;3880;51.464;-2.566;2022-07-23T14:13:32;6.87;;;3.20;;
7675;SDS011;3880;51.464;-2.566;2022-07-23T14:16:02;6.37;;;3.17;;
7675;SDS011;3880;51.464;-2.566;2022-07-23T14:18:31;3.57;;;2.90;;
7675;SDS011;3880;51.464;-2.566;2022-07-23T14:20:58;2.80;;;2.60;;
7675;SDS011;3880;51.464;-2.566;2022-07-23T14:23:25;5.57;;;2.50;;
7675;SDS011;3880;51.464;-2.566;2022-07-23T14:25:52;2.90;;;2.60;;
7675;SDS011;3880;51.464;-2.566;2022-07-23T14:28:22;4.17;;;2.90;;
7675;SDS011;3880;51.464;-2.566;2022-07-23T14:30:49;4.50;;;3.10;;
7675;SDS011;3880;51.464;-2.566;2022-07-23T14:33:16;3.50;;;2.40;;
7675;SDS011;3880;51.464;-2.566;2022-07-23T14:35:44;3.85;;;2.83;;
7675;SDS011;3880;51.464;-2.566;2022-07-23T14:38:11;8.60;;;3.05;;
7675;SDS011;3880;51.464;-2.566;2022-07-23T14:40:39;6.25;;;3.22;;
7675;SDS011;3880;51.464;-2.566;2022-07-23T14:43:06;5.95;;;3.58;;
7675;SDS011;3880;51.464;-2.566;2022-07-23T14:45:34;6.13;;;3.22;;
7675;SDS011;3880;51.464;-2.566;2022-07-23T14:48:17;4.80;;;3.80;;
7675;SDS011;3880;51.464;-2.566;2022-07-23T14:50:46;4.72;;;3.42;;
7675;SDS011;3880;51.464;-2.566;2022-07-23T14:53:16;4.63;;;3.60;;
7675;SDS011;3880;51.464;-2.566;2022-07-23T14:55:50;7.17;;;3.30;;
7675;SDS011;3880;51.464;-2.566;2022-07-23T14:58:17;4.70;;;2.93;;
7675;SDS011;3880;51.464;-2.566;2022-07-23T15:00:45;5.07;;;3.97;;
7675;SDS011;3880;51.464;-2.566;2022-07-23T15:03:12;3.30;;;3.00;;
7675;SDS011;3880;51.464;-2.566;2022-07-23T15:05:39;5.43;;;3.67;;
7675;SDS011;3880;51.464;-2.566;2022-07-23T15:08:07;5.20;;;3.27;;
7675;SDS011;3880;51.464;-2.566;2022-07-23T15:10:34;5.87;;;3.33;;
7675;SDS011;3880;51.464;-2.566;2022-07-23T15:13:02;5.27;;;3.53;;
7675;SDS011;3880;51.464;-2.566;2022-07-23T15:15:29;4.30;;;3.37;;
7675;SDS011;3880;51.464;-2.566;2022-07-23T15:17:56;3.83;;;3.03;;
7675;SDS011;3880;51.464;-2.566;2022-07-23T15:20:25;4.40;;;3.77;;
7675;SDS011;3880;51.464;-2.566;2022-07-23T15:23:02;6.13;;;4.03;;
7675;SDS011;3880;51.464;-2.566;2022-07-23T15:25:31;5.30;;;3.50;;
7675;SDS011;3880;51.464;-2.566;2022-07-23T15:27:58;4.90;;;3.47;;
7675;SDS011;3880;51.464;-2.566;2022-07-23T15:30:26;5.60;;;3.30;;
7675;SDS011;3880;51.464;-2.566;2022-07-23T15:32:53;8.52;;;3.55;;
7675;SDS011;3880;51.464;-2.566;2022-07-23T15:35:20;8.20;;;4.53;;
7675;SDS011;3880;51.464;-2.566;2022-07-23T15:37:47;3.40;;;3.10;;
7675;SDS011;3880;51.464;-2.566;2022-07-23T15:40:14;5.10;;;3.97;;
7675;SDS011;3880;51.464;-2.566;2022-07-23T15:42:43;4.80;;;3.80;;
7675;SDS011;3880;51.464;-2.566;2022-07-23T15:45:10;5.90;;;3.50;;
7675;SDS011;3880;51.464;-2.566;2022-07-23T15:47:37;10.60;;;4.40;;
7675;SDS011;3880;51.464;-2.566;2022-07-23T15:50:06;5.47;;;3.43;;
7675;SDS011;3880;51.464;-2.566;2022-07-23T15:52:34;4.77;;;3.43;;
7675;SDS011;3880;51.464;-2.566;2022-07-23T15:55:01;8.23;;;4.27;;
7675;SDS011;3880;51.464;-2.566;2022-07-23T15:57:32;5.00;;;3.83;;
7675;SDS011;3880;51.464;-2.566;2022-07-23T16:00:03;6.60;;;3.97;;
7675;SDS011;3880;51.464;-2.566;2022-07-23T16:02:32;6.10;;;3.77;;
7675;SDS011;3880;51.464;-2.566;2022-07-23T16:04:59;6.60;;;3.30;;
7675;SDS011;3880;51.464;-2.566;2022-07-23T16:07:26;5.87;;;3.87;;
7675;SDS011;3880;51.464;-2.566;2022-07-23T16:09:56;5.50;;;3.50;;
7675;SDS011;3880;51.464;-2.566;2022-07-23T16:12:23;4.03;;;3.57;;
7675;SDS011;3880;51.464;-2.566;2022-07-23T16:14:50;8.70;;;4.93;;
7675;SDS011;3880;51.464;-2.566;2022-07-23T16:17:18;4.30;;;3.13;;
7675;SDS011;3880;51.464;-2.566;2022-07-23T16:19:46;6.97;;;3.87;;
7675;SDS011;3880;51.464;-2.566;2022-07-23T16:22:13;6.00;;;3.80;;
7675;SDS011;3880;51.464;-2.566;2022-07-23T16:24:41;6.53;;;3.80;;
7675;SDS011;3880;51.464;-2.566;2022-07-23T16:27:08;4.20;;;3.10;;
7675;SDS011;3880;51.464;-2.566;2022-07-23T16:29:42;4.00;;;3.50;;
7675;SDS011;3880;51.464;-2.566;2022-07-23T16:32:09;6.63;;;4.23;;
7675;SDS011;3880;51.464;-2.566;2022-07-23T16:34:38;8.40;;;4.03;;
7675;SDS011;3880;51.464;-2.566;2022-07-23T16:37:06;6.40;;;3.80;;
7675;SDS011;3880;51.464;-2.566;2022-07-23T16:39:34;7.73;;;4.00;;
7675;SDS011;3880;51.464;-2.566;2022-07-23T16:42:02;6.03;;;4.10;;
7675;SDS011;3880;51.464;-2.566;2022-07-23T16:44:30;7.20;;;3.20;;
7675;SDS011;3880;51.464;-2.566;2022-07-23T16:46:57;4.33;;;3.77;;
7675;SDS011;3880;51.464;-2.566;2022-07-23T16:49:24;5.20;;;3.73;;
7675;SDS011;3880;51.464;-2.566;2022-07-23T16:51:55;5.77;;;3.67;;
7675;SDS011;3880;51.464;-2.566;2022-07-23T16:54:25;5.43;;;3.50;;
7675;SDS011;3880;51.464;-2.566;2022-07-23T16:56:53;8.17;;;3.77;;
7675;SDS011;3880;51.464;-2.566;2022-07-23T16:59:29;6.03;;;3.77;;
7675;SDS011;3880;51.464;-2.566;2022-07-23T17:01:56;8.80;;;4.03;;
7675;SDS011;3880;51.464;-2.566;2022-07-23T17:04:23;4.70;;;3.67;;
7675;SDS011;3880;51.464;-2.566;2022-07-23T17:06:52;6.03;;;3.63;;
7675;SDS011;3880;51.464;-2.566;2022-07-23T17:09:22;8.47;;;4.20;;
7675;SDS011;3880;51.464;-2.566;2022-07-23T17:11:51;7.73;;;3.57;;
7675;SDS011;3880;51.464;-2.566;2022-07-23T17:14:19;3.97;;;3.50;;
7675;SDS011;3880;51.464;-2.566;2022-07-23T17:16:46;8.03;;;3.93;;
7675;SDS011;3880;51.464;-2.566;2022-07-23T17:19:13;6.37;;;3.63;;
7675;SDS011;3880;51.464;-2.566;2022-07-23T17:21:40;3.40;;;3.10;;
7675;SDS011;3880;51.464;-2.566;2022-07-23T17:24:08;5.90;;;3.80;;
7675;SDS011;3880;51.464;-2.566;2022-07-23T17:26:36;5.47;;;3.50;;
7675;SDS011;3880;51.464;-2.566;2022-07-23T17:29:03;6.80;;;3.83;;
7675;SDS011;3880;51.464;-2.566;2022-07-23T17:31:30;6.93;;;3.80;;
7675;SDS011;3880;51.464;-2.566;2022-07-23T17:33:57;6.50;;;3.90;;
7675;SDS011;3880;51.464;-2.566;2022-07-23T17:36:24;5.53;;;3.70;;
7675;SDS011;3880;51.464;-2.566;2022-07-23T17:38:52;9.80;;;4.20;;
7675;SDS011;3880;51.464;-2.566;2022-07-23T17:41:20;9.20;;;4.53;;
7675;SDS011;3880;51.464;-2.566;2022-07-23T17:43:47;5.20;;;3.90;;
7675;SDS011;3880;51.464;-2.566;2022-07-23T17:46:14;6.07;;;4.10;;
7675;SDS011;3880;51.464;-2.566;2022-07-23T17:48:42;9.13;;;4.50;;
7675;SDS011;3880;51.464;-2.566;2022-07-23T17:51:09;6.80;;;4.50;;
7675;SDS011;3880;51.464;-2.566;2022-07-23T17:53:36;6.70;;;4.53;;
7675;SDS011;3880;51.464;-2.566;2022-07-23T17:56:04;7.40;;;4.43;;
7675;SDS011;3880;51.464;-2.566;2022-07-23T17:58:33;5.53;;;4.27;;
7675;SDS011;3880;51.464;-2.566;2022-07-23T18:01:00;8.07;;;4.30;;
7675;SDS011;3880;51.464;-2.566;2022-07-23T18:03:27;8.47;;;4.23;;
7675;SDS011;3880;51.464;-2.566;2022-07-23T18:05:55;7.60;;;4.87;;
7675;SDS011;3880;51.464;-2.566;2022-07-23T18:08:23;5.97;;;4.33;;
7675;SDS011;3880;51.464;-2.566;2022-07-23T18:10:50;7.00;;;4.27;;
7675;SDS011;3880;51.464;-2.566;2022-07-23T18:13:17;6.30;;;3.93;;
7675;SDS011;3880;51.464;-2.566;2022-07-23T18:15:46;5.07;;;4.03;;
7675;SDS011;3880;51.464;-2.566;2022-07-23T18:18:13;8.60;;;4.30;;
7675;SDS011;3880;51.464;-2.566;2022-07-23T18:20:41;5.03;;;4.17;;
7675;SDS011;3880;51.464;-2.566;2022-07-23T18:23:09;11.00;;;4.17;;
7675;SDS011;3880;51.464;-2.566;2022-07-23T18:25:36;7.10;;;4.70;;
7675;SDS011;3880;51.464;-2.566;2022-07-23T18:28:04;12.97;;;4.70;;
7675;SDS011;3880;51.464;-2.566;2022-07-23T18:30:31;8.63;;;4.00;;
7675;SDS011;3880;51.464;-2.566;2022-07-23T18:33:00;5.87;;;4.10;;
7675;SDS011;3880;51.464;-2.566;2022-07-23T18:35:27;6.77;;;3.80;;
7675;SDS011;3880;51.464;-2.566;2022-07-23T18:37:54;5.37;;;4.00;;
7675;SDS011;3880;51.464;-2.566;2022-07-23T18:40:21;7.73;;;3.70;;
7675;SDS011;3880;51.464;-2.566;2022-07-23T18:42:49;4.70;;;4.00;;
7675;SDS011;3880;51.464;-2.566;2022-07-23T18:45:18;8.07;;;4.60;;
7675;SDS011;3880;51.464;-2.566;2022-07-23T18:47:45;8.13;;;4.67;;
7675;SDS011;3880;51.464;-2.566;2022-07-23T18:50:14;5.07;;;3.43;;
7675;SDS011;3880;51.464;-2.566;2022-07-23T18:52:55;9.73;;;4.40;;
7675;SDS011;3880;51.464;-2.566;2022-07-23T18:55:22;8.00;;;4.23;;
7675;SDS011;3880;51.464;-2.566;2022-07-23T18:57:51;6.93;;;4.07;;
7675;SDS011;3880;51.464;-2.566;2022-07-23T19:00:20;8.33;;;4.20;;
7675;SDS011;3880;51.464;-2.566;2022-07-23T19:02:47;8.67;;;4.47;;
7675;SDS011;3880;51.464;-2.566;2022-07-23T19:05:16;9.23;;;3.87;;
7675;SDS011;3880;51.464;-2.566;2022-07-23T19:07:43;6.57;;;4.30;;
7675;SDS011;3880;51.464;-2.566;2022-07-23T19:10:10;10.20;;;5.33;;
7675;SDS011;3880;51.464;-2.566;2022-07-23T19:12:37;7.33;;;4.10;;
7675;SDS011;3880;51.464;-2.566;2022-07-23T19:15:05;9.20;;;4.83;;
7675;SDS011;3880;51.464;-2.566;2022-07-23T19:17:32;8.03;;;4.50;;
7675;SDS011;3880;51.464;-2.566;2022-07-23T19:20:00;12.80;;;4.70;;
7675;SDS011;3880;51.464;-2.566;2022-07-23T19:22:28;6.33;;;4.30;;
7675;SDS011;3880;51.464;-2.566;2022-07-23T19:24:55;15.60;;;5.70;;
7675;SDS011;3880;51.464;-2.566;2022-07-23T19:27:23;5.93;;;4.23;;
7675;SDS011;3880;51.464;-2.566;2022-07-23T19:29:52;7.17;;;3.70;;
7675;SDS011;3880;51.464;-2.566;2022-07-23T19:32:19;8.90;;;4.60;;
7675;SDS011;3880;51.464;-2.566;2022-07-23T19:34:46;7.53;;;4.20;;
7675;SDS011;3880;51.464;-2.566;2022-07-23T19:37:13;9.23;;;4.73;;
7675;SDS011;3880;51.464;-2.566;2022-07-23T19:39:43;9.63;;;4.87;;
7675;SDS011;3880;51.464;-2.566;2022-07-23T19:42:12;11.70;;;4.60;;
7675;SDS011;3880;51.464;-2.566;2022-07-23T19:44:39;9.13;;;4.37;;
7675;SDS011;3880;51.464;-2.566;2022-07-23T19:47:06;9.37;;;4.67;;
7675;SDS011;3880;51.464;-2.566;2022-07-23T19:49:34;10.97;;;4.50;;
7675;SDS011;3880;51.464;-2.566;2022-07-23T19:52:01;8.83;;;5.27;;
7675;SDS011;3880;51.464;-2.566;2022-07-23T19:54:28;6.43;;;4.43;;
7675;SDS011;3880;51.464;-2.566;2022-07-23T19:56:57;7.13;;;4.37;;
7675;SDS011;3880;51.464;-2.566;2022-07-23T19:59:24;7.60;;;4.27;;
7675;SDS011;3880;51.464;-2.566;2022-07-23T20:01:51;8.70;;;4.57;;
7675;SDS011;3880;51.464;-2.566;2022-07-23T20:04:18;10.03;;;5.07;;
7675;SDS011;3880;51.464;-2.566;2022-07-23T20:06:45;10.17;;;5.13;;
7675;SDS011;3880;51.464;-2.566;2022-07-23T20:09:12;6.13;;;4.90;;
7675;SDS011;3880;51.464;-2.566;2022-07-23T20:11:40;8.60;;;5.27;;
7675;SDS011;3880;51.464;-2.566;2022-07-23T20:14:08;6.97;;;4.70;;
7675;SDS011;3880;51.464;-2.566;2022-07-23T20:16:35;9.90;;;5.00;;
7675;SDS011;3880;51.464;-2.566;2022-07-23T20:19:02;7.57;;;5.10;;
7675;SDS011;3880;51.464;-2.566;2022-07-23T20:21:29;7.17;;;5.33;;
7675;SDS011;3880;51.464;-2.566;2022-07-23T20:23:56;10.13;;;4.83;;
7675;SDS011;3880;51.464;-2.566;2022-07-23T20:26:23;8.80;;;5.23;;
7675;SDS011;3880;51.464;-2.566;2022-07-23T20:28:51;10.47;;;5.37;;
7675;SDS011;3880;51.464;-2.566;2022-07-23T20:31:19;12.23;;;5.37;;
7675;SDS011;3880;51.464;-2.566;2022-07-23T20:33:46;9.27;;;5.50;;
7675;SDS011;3880;51.464;-2.566;2022-07-23T20:36:13;6.70;;;5.30;;
7675;SDS011;3880;51.464;-2.566;2022-07-23T20:38:40;9.43;;;5.30;;
7675;SDS011;3880;51.464;-2.566;2022-07-23T20:41:07;12.20;;;5.63;;
7675;SDS011;3880;51.464;-2.566;2022-07-23T20:43:34;9.47;;;5.10;;
7675;SDS011;3880;51.464;-2.566;2022-07-23T20:46:01;11.60;;;5.67;;
7675;SDS011;3880;51.464;-2.566;2022-07-23T20:48:30;13.30;;;5.00;;
7675;SDS011;3880;51.464;-2.566;2022-07-23T20:50:57;10.10;;;5.57;;
7675;SDS011;3880;51.464;-2.566;2022-07-23T20:53:25;7.00;;;5.67;;
7675;SDS011;3880;51.464;-2.566;2022-07-23T20:55:52;9.13;;;5.17;;
7675;SDS011;3880;51.464;-2.566;2022-07-23T20:58:24;14.90;;;5.93;;
7675;SDS011;3880;51.464;-2.566;2022-07-23T21:00:51;8.37;;;5.40;;
7675;SDS011;3880;51.464;-2.566;2022-07-23T21:03:18;11.17;;;4.97;;
7675;SDS011;3880;51.464;-2.566;2022-07-23T21:05:47;11.93;;;5.90;;
7675;SDS011;3880;51.464;-2.566;2022-07-23T21:08:14;13.27;;;5.80;;
7675;SDS011;3880;51.464;-2.566;2022-07-23T21:10:41;9.10;;;5.30;;
7675;SDS011;3880;51.464;-2.566;2022-07-23T21:13:08;12.37;;;6.00;;
7675;SDS011;3880;51.464;-2.566;2022-07-23T21:15:35;7.87;;;4.87;;
7675;SDS011;3880;51.464;-2.566;2022-07-23T21:18:03;7.63;;;4.80;;
7675;SDS011;3880;51.464;-2.566;2022-07-23T21:20:30;8.67;;;5.60;;
7675;SDS011;3880;51.464;-2.566;2022-07-23T21:23:18;10.17;;;5.13;;
7675;SDS011;3880;51.464;-2.566;2022-07-23T21:25:45;7.53;;;4.93;;
7675;SDS011;3880;51.464;-2.566;2022-07-23T21:28:14;13.13;;;5.90;;
7675;SDS011;3880;51.464;-2.566;2022-07-23T21:30:42;8.70;;;5.70;;
7675;SDS011;3880;51.464;-2.566;2022-07-23T21:33:09;12.57;;;7.53;;
7675;SDS011;3880;51.464;-2.566;2022-07-23T21:35:36;16.20;;;6.60;;
7675;SDS011;3880;51.464;-2.566;2022-07-23T21:38:03;9.80;;;5.47;;
7675;SDS011;3880;51.464;-2.566;2022-07-23T21:40:32;6.07;;;5.03;;
7675;SDS011;3880;51.464;-2.566;2022-07-23T21:42:59;10.87;;;5.23;;
7675;SDS011;3880;51.464;-2.566;2022-07-23T21:45:26;8.70;;;5.53;;
7675;SDS011;3880;51.464;-2.566;2022-07-23T21:47:53;7.73;;;5.83;;
7675;SDS011;3880;51.464;-2.566;2022-07-23T21:50:20;9.93;;;5.77;;
7675;SDS011;3880;51.464;-2.566;2022-07-23T21:52:47;12.10;;;6.50;;
7675;SDS011;3880;51.464;-2.566;2022-07-23T21:55:14;10.10;;;6.43;;
7675;SDS011;3880;51.464;-2.566;2022-07-23T21:57:43;8.60;;;5.87;;
7675;SDS011;3880;51.464;-2.566;2022-07-23T22:00:12;14.07;;;6.30;;
7675;SDS011;3880;51.464;-2.566;2022-07-23T22:02:42;7.60;;;5.67;;
7675;SDS011;3880;51.464;-2.566;2022-07-23T22:05:09;16.97;;;6.47;;
7675;SDS011;3880;51.464;-2.566;2022-07-23T22:07:36;10.87;;;5.90;;
7675;SDS011;3880;51.464;-2.566;2022-07-23T22:10:03;8.57;;;5.60;;
7675;SDS011;3880;51.464;-2.566;2022-07-23T22:12:31;15.73;;;6.30;;
7675;SDS011;3880;51.464;-2.566;2022-07-23T22:15:00;13.67;;;6.03;;
7675;SDS011;3880;51.464;-2.566;2022-07-23T22:17:27;11.07;;;5.73;;
7675;SDS011;3880;51.464;-2.566;2022-07-23T22:19:54;8.90;;;5.60;;
7675;SDS011;3880;51.464;-2.566;2022-07-23T22:22:24;10.57;;;4.93;;
7675;SDS011;3880;51.464;-2.566;2022-07-23T22:24:52;9.37;;;4.87;;
7675;SDS011;3880;51.464;-2.566;2022-07-23T22:27:19;12.03;;;6.20;;
7675;SDS011;3880;51.464;-2.566;2022-07-23T22:29:46;11.77;;;6.20;;
7675;SDS011;3880;51.464;-2.566;2022-07-23T22:32:15;13.13;;;6.57;;
7675;SDS011;3880;51.464;-2.566;2022-07-23T22:34:42;10.73;;;6.40;;
7675;SDS011;3880;51.464;-2.566;2022-07-23T22:37:09;9.93;;;4.83;;
7675;SDS011;3880;51.464;-2.566;2022-07-23T22:39:35;11.47;;;6.57;;
7675;SDS011;3880;51.464;-2.566;2022-07-23T22:42:03;9.47;;;5.57;;
7675;SDS011;3880;51.464;-2.566;2022-07-23T22:44:30;11.70;;;5.57;;
7675;SDS011;3880;51.464;-2.566;2022-07-23T22:46:57;9.47;;;5.60;;
7675;SDS011;3880;51.464;-2.566;2022-07-23T22:49:29;7.63;;;5.27;;
7675;SDS011;3880;51.464;-2.566;2022-07-23T22:51:56;10.43;;;4.93;;